Time;durP1;ratioP1;P1;durP2;ratioP2;P2;SDS_P1;SDS_P2;PMS_P1;PMS_P2;Temp;Humidity;BMP_temperature;BMP_pressure;BME280_temperature;BME280_humidity;BME280_pressure;Samples;Min_cycle;Max_cycle;Signal;HPM_P1;HPM_P2
2024/01/23 00:01:06;;;;;;;5.23;3.10;;;;;;;7.13;85.06;100383.66;5072297;28;20285;-78
2024/01/23 00:03:33;;;;;;;7.07;3.73;;;;;;;7.33;86.13;100380.97;5074459;28;20291;-78
2024/01/23 00:05:59;;;;;;;8.90;3.83;;;;;;;7.42;85.69;100379.16;5073275;28;20201;-78
2024/01/23 00:08:26;;;;;;;9.10;3.70;;;;;;;7.11;86.02;100381.94;5073020;28;20205;-78
2024/01/23 00:10:53;;;;;;;9.33;3.43;;;;;;;7.13;87.23;100349.91;5072042;28;20221;-78
2024/01/23 00:13:20;;;;;;;9.10;3.70;;;;;;;7.50;87.33;100323.69;5076127;28;20284;-78
2024/01/23 00:15:47;;;;;;;6.07;2.70;;;;;;;7.22;86.62;100319.59;5079550;28;20209;-77
2024/01/23 00:18:13;;;;;;;7.13;2.80;;;;;;;7.43;86.31;100331.53;5091292;28;20619;-77
2024/01/23 00:20:39;;;;;;;6.83;2.70;;;;;;;7.03;87.38;100329.22;5083406;28;20248;-77
2024/01/23 00:23:06;;;;;;;6.27;2.10;;;;;;;7.06;86.39;100332.66;5085377;28;20278;-78
2024/01/23 00:25:32;;;;;;;6.23;1.70;;;;;;;7.06;86.15;100347.38;5081113;28;20257;-77
2024/01/23 00:28:00;;;;;;;2.73;1.90;;;;;;;6.93;86.90;100364.75;5080654;28;20204;-78
2024/01/23 00:30:26;;;;;;;6.47;2.20;;;;;;;7.04;86.97;100352.56;5065844;28;20729;-78
2024/01/23 00:32:53;;;;;;;1.93;1.40;;;;;;;6.91;86.38;100364.75;5073193;28;20711;-78
2024/01/23 00:35:19;;;;;;;6.27;2.00;;;;;;;6.81;86.18;100354.44;5073094;28;20288;-77
2024/01/23 00:37:45;;;;;;;3.77;2.23;;;;;;;6.93;87.38;100350.03;5073036;28;20206;-78
2024/01/23 00:40:12;;;;;;;4.60;2.13;;;;;;;6.87;87.67;100344.88;5073392;28;20221;-77
2024/01/23 00:42:39;;;;;;;8.63;2.57;;;;;;;6.99;86.93;100336.16;5073097;28;20231;-78
2024/01/23 00:45:08;;;;;;;2.50;1.20;;;;;;;7.04;85.80;100367.28;5072337;28;20626;-78
2024/01/23 00:47:34;;;;;;;4.40;1.97;;;;;;;6.78;86.38;100377.78;5073187;28;20212;-77
2024/01/23 00:50:00;;;;;;;3.73;1.87;;;;;;;7.03;85.56;100373.34;5072155;28;20213;-78
2024/01/23 00:52:27;;;;;;;3.40;1.87;;;;;;;6.84;85.78;100377.75;5073163;28;20286;-78
2024/01/23 00:54:58;;;;;;;4.07;1.30;;;;;;;6.87;85.82;100378.59;5072086;28;20622;-77
2024/01/23 00:57:25;;;;;;;4.20;1.20;;;;;;;6.59;85.99;100382.19;5072281;28;20229;-78
2024/01/23 00:59:51;;;;;;;2.03;1.10;;;;;;;6.68;85.90;100370.06;5071968;28;20215;-77
2024/01/23 01:02:19;;;;;;;3.10;1.50;;;;;;;6.55;86.64;100394.31;5072938;28;20227;-77
2024/01/23 01:04:46;;;;;;;3.37;1.03;;;;;;;6.65;86.02;100421.94;5072556;28;20214;-78
2024/01/23 01:07:13;;;;;;;3.57;1.10;;;;;;;6.60;85.78;100421.09;5072749;28;20258;-78
2024/01/23 01:09:39;;;;;;;4.57;1.40;;;;;;;6.76;84.96;100432.28;5072443;28;20698;-78
2024/01/23 01:12:06;;;;;;;3.70;1.80;;;;;;;6.49;85.38;100434.06;5072640;28;20231;-78
2024/01/23 01:14:33;;;;;;;2.67;1.07;;;;;;;6.40;84.66;100448.78;5072992;28;20196;-78
2024/01/23 01:17:00;;;;;;;3.17;1.30;;;;;;;6.37;84.93;100449.66;5072934;28;20250;-77
2024/01/23 01:19:27;;;;;;;1.70;1.00;;;;;;;6.28;85.67;100460.03;5072791;28;20276;-77
2024/01/23 01:21:54;;;;;;;4.13;1.40;;;;;;;6.54;86.11;100452.22;5072744;28;20293;-78
2024/01/23 01:24:20;;;;;;;1.57;1.00;;;;;;;6.49;85.65;100457.41;5072767;28;20210;-79
2024/01/23 01:26:47;;;;;;;3.63;1.43;;;;;;;6.29;85.82;100470.41;5072932;28;20217;-77
2024/01/23 01:29:13;;;;;;;4.47;1.63;;;;;;;6.23;87.06;100469.56;5071680;28;20250;-78
2024/01/23 01:31:39;;;;;;;6.47;1.87;;;;;;;6.21;87.33;100435.88;5072417;28;20280;-78
2024/01/23 01:34:06;;;;;;;4.20;1.53;;;;;;;6.25;87.57;100436.72;5072674;28;20705;-78
2024/01/23 01:36:33;;;;;;;4.33;1.33;;;;;;;6.23;87.23;100435.88;5073187;28;20253;-78
2024/01/23 01:39:02;;;;;;;4.83;1.87;;;;;;;6.22;86.89;100437.56;5072595;28;20199;-78
2024/01/23 01:41:28;;;;;;;6.10;2.00;;;;;;;6.14;87.56;100431.53;5072766;28;20304;-78
2024/01/23 01:43:54;;;;;;;6.93;2.20;;;;;;;6.08;89.67;100400.44;5072503;28;20275;-77
2024/01/23 01:46:23;;;;;;;4.90;1.83;;;;;;;6.00;89.85;100376.28;5068078;28;20206;-78
2024/01/23 01:48:50;;;;;;;3.77;1.27;;;;;;;6.16;89.77;100360.72;5068900;28;20201;-77
2024/01/23 01:51:18;;;;;;;2.67;1.20;;;;;;;5.94;90.70;100357.25;5071535;28;20227;-77
2024/01/23 01:53:46;;;;;;;7.13;1.63;;;;;;;6.03;89.55;100351.22;5072234;28;20203;-77
2024/01/23 01:56:12;;;;;;;10.63;1.93;;;;;;;6.14;89.91;100356.38;5072421;28;20207;-77
2024/01/23 01:58:40;;;;;;;8.97;1.57;;;;;;;6.13;90.19;100352.94;5071671;28;20203;-77
2024/01/23 02:01:06;;;;;;;6.33;1.80;;;;;;;6.18;89.51;100349.47;5071978;28;20578;-78
2024/01/23 02:03:33;;;;;;;6.00;1.77;;;;;;;6.22;90.11;100343.41;5072456;28;20274;-78
2024/01/23 02:06:02;;;;;;;6.57;2.63;;;;;;;6.05;90.67;100346.91;5071886;28;20204;-77
2024/01/23 02:08:29;;;;;;;7.70;2.97;;;;;;;6.00;91.36;100334.81;5075360;28;20209;-77
2024/01/23 02:10:57;;;;;;;5.80;1.90;;;;;;;6.11;90.57;100343.44;5075481;28;20199;-78
2024/01/23 02:13:23;;;;;;;8.30;2.43;;;;;;;6.33;90.31;100333.88;5075130;28;20266;-77
2024/01/23 02:15:50;;;;;;;6.27;1.80;;;;;;;6.39;89.72;100343.38;5075810;28;20200;-78
2024/01/23 02:18:16;;;;;;;10.10;2.87;;;;;;;6.27;89.97;100363.28;5075786;28;20256;-78
2024/01/23 02:20:43;;;;;;;5.70;1.93;;;;;;;6.24;90.43;100370.19;5075282;28;20194;-78
2024/01/23 02:23:12;;;;;;;6.90;2.83;;;;;;;6.49;89.64;100384.81;5075717;28;20223;-78
2024/01/23 02:25:40;;;;;;;9.73;2.00;;;;;;;6.58;89.22;100386.53;5075046;28;20204;-78
2024/01/23 02:28:07;;;;;;;8.27;2.63;;;;;;;6.46;89.14;100397.81;5075273;28;20207;-78
2024/01/23 02:30:34;;;;;;;11.13;2.10;;;;;;;6.44;89.59;100401.25;5075304;28;20784;-78
2024/01/23 02:33:01;;;;;;;9.33;2.70;;;;;;;6.49;89.16;100415.94;5068769;28;20234;-77
2024/01/23 02:35:27;;;;;;;9.27;2.30;;;;;;;6.57;88.20;100427.13;5067954;28;20207;-78
2024/01/23 02:37:54;;;;;;;7.13;1.90;;;;;;;6.65;87.70;100440.09;5074983;28;20203;-78
2024/01/23 02:40:21;;;;;;;5.20;2.13;;;;;;;6.54;87.12;100454.78;5075096;28;20204;-77
2024/01/23 02:42:49;;;;;;;6.10;2.50;;;;;;;6.43;87.72;100465.22;5075144;28;20219;-76
2024/01/23 02:45:15;;;;;;;6.00;2.10;;;;;;;6.55;87.85;100472.09;5073673;28;20750;-77
2024/01/23 02:47:42;;;;;;;12.83;3.40;;;;;;;6.59;86.68;100496.31;5074933;28;20208;-78
2024/01/23 02:50:09;;;;;;;8.10;2.80;;;;;;;6.35;85.79;100514.47;5074615;28;20542;-77
2024/01/23 02:52:35;;;;;;;10.37;2.60;;;;;;;6.24;86.08;100523.97;5074665;28;20227;-77
2024/01/23 02:55:03;;;;;;;11.63;3.10;;;;;;;6.39;86.22;100522.25;5073978;28;20665;-78
2024/01/23 02:57:30;;;;;;;6.73;2.93;;;;;;;6.32;85.88;100543.00;5075258;28;20200;-78
2024/01/23 02:59:57;;;;;;;7.73;2.30;;;;;;;6.26;86.37;100535.19;5074425;28;20612;-78
2024/01/23 03:02:24;;;;;;;12.33;3.70;;;;;;;6.53;85.83;100543.84;5068698;28;20250;-78
2024/01/23 03:04:51;;;;;;;11.07;3.20;;;;;;;6.60;85.44;100522.25;5076251;28;20205;-78
2024/01/23 03:07:18;;;;;;;11.87;2.80;;;;;;;6.60;84.06;100557.66;5075941;28;20211;-78
2024/01/23 03:09:45;;;;;;;7.47;2.20;;;;;;;6.52;83.92;100600.06;5075923;28;20216;-78
2024/01/23 03:12:15;;;;;;;7.77;2.63;;;;;;;6.57;83.56;100603.50;5074441;28;20792;-78
2024/01/23 03:14:42;;;;;;;13.10;2.50;;;;;;;6.68;83.56;100606.09;5069593;28;20227;-77
2024/01/23 03:17:10;;;;;;;7.40;2.40;;;;;;;6.82;83.35;100626.84;5075900;28;20202;-78
2024/01/23 03:19:36;;;;;;;12.50;3.00;;;;;;;6.73;83.38;100650.19;5075250;28;20212;-78
2024/01/23 03:22:03;;;;;;;8.40;2.80;;;;;;;6.69;83.22;100662.28;5074679;28;20274;-78
2024/01/23 03:24:29;;;;;;;10.27;2.33;;;;;;;6.24;85.19;100656.16;5075376;28;20291;-78
2024/01/23 03:26:55;;;;;;;9.27;2.70;;;;;;;6.34;85.54;100626.81;5075877;28;20202;-78
2024/01/23 03:29:22;;;;;;;6.47;2.90;;;;;;;6.38;84.16;100632.00;5074201;28;20345;-78
2024/01/23 03:31:49;;;;;;;13.07;5.03;;;;;;;6.59;83.66;100650.19;5074394;28;20641;-77
2024/01/23 03:34:17;;;;;;;10.80;3.37;;;;;;;6.66;84.17;100662.31;5074498;28;20225;-77
2024/01/23 03:36:44;;;;;;;8.70;3.47;;;;;;;6.41;83.62;100682.13;5074299;28;20207;-78
2024/01/23 03:39:10;;;;;;;12.80;2.73;;;;;;;6.60;82.75;100692.53;5073926;28;20213;-77
2024/01/23 03:41:37;;;;;;;7.53;2.23;;;;;;;6.69;82.83;100703.78;5074684;28;20219;-78
2024/01/23 03:44:05;;;;;;;12.07;3.17;;;;;;;6.88;81.75;100719.41;5073857;28;20203;-78
2024/01/23 03:46:31;;;;;;;8.93;2.40;;;;;;;6.76;82.80;100739.25;5074915;28;20201;-78
2024/01/23 03:48:57;;;;;;;18.40;2.53;;;;;;;6.91;82.87;100743.59;5074586;28;20202;-77
2024/01/23 03:51:25;;;;;;;7.20;2.97;;;;;;;6.62;86.53;100683.91;5074425;28;20226;-77
2024/01/23 03:53:52;;;;;;;8.03;2.20;;;;;;;6.60;86.29;100656.22;5073684;28;20259;-78
2024/01/23 03:56:18;;;;;;;10.40;2.63;;;;;;;6.63;86.80;100643.28;5074099;28;20205;-78
2024/01/23 03:58:45;;;;;;;10.13;3.93;;;;;;;6.53;87.48;100637.22;5073564;28;20210;-78
2024/01/23 04:01:11;;;;;;;9.23;2.70;;;;;;;6.69;87.07;100628.56;5074019;28;20223;-78
2024/01/23 04:03:37;;;;;;;10.60;2.30;;;;;;;6.72;86.64;100636.34;5074226;28;20260;-78
2024/01/23 04:06:04;;;;;;;8.87;3.23;;;;;;;6.56;86.21;100639.78;5073439;28;20207;-77
2024/01/23 04:08:32;;;;;;;14.77;7.30;;;;;;;6.52;86.14;100657.09;5074009;28;20207;-78
2024/01/23 04:10:58;;;;;;;14.77;10.57;;;;;;;6.38;85.58;100666.56;5073551;28;20283;-78
2024/01/23 04:13:25;;;;;;;8.70;4.23;;;;;;;6.46;84.47;100687.31;5073500;28;20224;-78
2024/01/23 04:15:51;;;;;;;7.53;1.93;;;;;;;6.67;84.87;100686.50;5073139;28;20206;-78
2024/01/23 04:18:18;;;;;;;10.23;2.40;;;;;;;6.69;84.31;100721.94;5073697;28;20684;-78
2024/01/23 04:20:44;;;;;;;10.50;2.50;;;;;;;6.75;84.47;100732.31;5073856;28;20628;-78
2024/01/23 04:23:10;;;;;;;6.27;2.23;;;;;;;6.74;83.65;100737.53;5074077;28;20225;-78
2024/01/23 04:25:38;;;;;;;9.60;2.00;;;;;;;6.48;84.17;100760.81;5074250;28;20207;-78
2024/01/23 04:28:05;;;;;;;4.43;2.17;;;;;;;6.57;83.71;100753.06;5074163;28;20238;-78
2024/01/23 04:30:31;;;;;;;10.20;2.03;;;;;;;6.46;84.27;100754.75;5063739;28;20199;-78
2024/01/23 04:32:58;;;;;;;7.50;2.47;;;;;;;6.36;83.87;100772.88;5073338;28;20228;-78
2024/01/23 04:35:24;;;;;;;8.03;4.90;;;;;;;6.37;83.01;100789.28;5072639;28;20737;-77
2024/01/23 04:37:50;;;;;;;9.90;3.77;;;;;;;6.53;82.54;100803.19;5073143;28;20260;-78
2024/01/23 04:40:17;;;;;;;9.53;1.80;;;;;;;6.45;83.19;100810.94;5073641;28;20746;-78
2024/01/23 04:42:45;;;;;;;5.63;2.43;;;;;;;6.36;83.84;100811.78;5073426;28;20272;-78
2024/01/23 04:45:11;;;;;;;5.90;1.90;;;;;;;6.41;84.99;100798.81;5072476;28;20208;-77
2024/01/23 04:47:38;;;;;;;6.03;2.10;;;;;;;6.44;83.60;100809.22;5072951;28;20203;-77
2024/01/23 04:50:05;;;;;;;7.37;1.80;;;;;;;6.62;84.15;100815.31;5072856;28;20198;-77
2024/01/23 04:52:30;;;;;;;6.43;2.53;;;;;;;6.64;83.39;100809.28;5073216;28;20229;-77
2024/01/23 04:54:57;;;;;;;7.13;2.03;;;;;;;6.24;83.36;100834.16;5073302;28;20724;-78
2024/01/23 04:57:30;;;;;;;6.90;2.13;;;;;;;6.47;83.50;100836.88;5072675;28;20633;-78
2024/01/23 04:59:58;;;;;;;5.07;1.80;;;;;;;6.49;83.87;100841.19;5072414;28;20210;-78
2024/01/23 05:02:24;;;;;;;9.13;2.40;;;;;;;6.33;84.02;100839.41;5073420;28;20227;-78
2024/01/23 05:04:50;;;;;;;5.30;2.50;;;;;;;6.22;84.48;100841.06;5073147;28;20246;-77
2024/01/23 05:07:17;;;;;;;10.90;2.23;;;;;;;6.50;83.75;100842.94;5072448;28;20213;-77
2024/01/23 05:09:43;;;;;;;7.23;2.53;;;;;;;6.42;83.60;100860.19;5072896;28;20671;-78
2024/01/23 05:12:10;;;;;;;6.67;2.03;;;;;;;6.50;83.05;100875.78;5073073;28;20224;-77
2024/01/23 05:14:36;;;;;;;8.27;1.80;;;;;;;6.53;82.23;100888.78;5072099;28;20257;-78
2024/01/23 05:17:04;;;;;;;10.80;2.00;;;;;;;6.43;82.73;100905.16;5073373;28;20275;-78
2024/01/23 05:19:30;;;;;;;8.13;3.03;;;;;;;6.61;82.56;100922.53;5072337;28;20203;-78
2024/01/23 05:21:57;;;;;;;11.60;2.60;;;;;;;6.69;82.78;100916.50;5073680;28;20228;-78
2024/01/23 05:24:24;;;;;;;8.97;2.17;;;;;;;6.57;82.67;100932.88;5073364;28;20209;-78
2024/01/23 05:26:50;;;;;;;10.37;2.70;;;;;;;6.45;82.44;100950.09;5073057;28;20211;-78
2024/01/23 05:29:17;;;;;;;7.40;2.60;;;;;;;6.38;83.65;100938.81;5072783;28;20206;-78
2024/01/23 05:31:43;;;;;;;7.40;2.63;;;;;;;6.46;84.14;100931.06;5073378;28;20233;-78
2024/01/23 05:34:11;;;;;;;7.27;2.73;;;;;;;6.56;82.98;100925.97;5073016;28;20225;-78
2024/01/23 05:36:37;;;;;;;8.50;2.60;;;;;;;6.38;84.00;100943.13;5074578;28;20200;-78
2024/01/23 05:39:04;;;;;;;10.57;3.23;;;;;;;6.54;83.44;100935.47;5068970;28;20229;-78
2024/01/23 05:41:30;;;;;;;8.93;3.17;;;;;;;6.49;83.35;100936.28;5075621;28;20226;-78
2024/01/23 05:43:57;;;;;;;9.57;2.93;;;;;;;6.61;83.55;100919.94;5076865;28;20203;-78
2024/01/23 05:46:23;;;;;;;7.80;2.03;;;;;;;6.62;82.78;100937.22;5076787;28;20232;-78
2024/01/23 05:48:50;;;;;;;8.63;2.70;;;;;;;6.60;82.42;100947.59;5070057;22;20234;-81
2024/01/23 05:51:18;;;;;;;7.87;2.77;;;;;;;6.79;82.22;100968.44;5034350;28;20269;-80
2024/01/23 05:53:44;;;;;;;7.20;2.50;;;;;;;6.71;82.49;100977.03;5037860;28;20752;-81
2024/01/23 05:56:11;;;;;;;9.87;3.60;;;;;;;6.96;81.73;100993.63;5037880;28;20271;-82
2024/01/23 05:58:37;;;;;;;17.87;2.97;;;;;;;6.84;81.79;100984.88;5034821;28;20227;-82
2024/01/23 06:01:04;;;;;;;12.57;3.40;;;;;;;6.95;81.60;101001.41;5018335;28;20204;-82
2024/01/23 06:03:30;;;;;;;7.03;2.60;;;;;;;6.71;82.38;101009.91;5018347;28;20247;-81
2024/01/23 06:05:56;;;;;;;13.43;3.30;;;;;;;6.81;82.47;101005.66;5018482;28;20206;-80
2024/01/23 06:08:24;;;;;;;11.97;4.03;;;;;;;6.82;81.50;101021.22;5017763;28;20232;-81
2024/01/23 06:10:50;;;;;;;12.57;3.67;;;;;;;6.73;80.96;101032.41;5018088;28;20678;-81
2024/01/23 06:13:18;;;;;;;6.27;2.40;;;;;;;6.35;82.40;101029.56;5017180;28;20230;-80
2024/01/23 06:15:44;;;;;;;7.93;2.50;;;;;;;6.62;81.74;101017.63;5017413;28;20288;-80
2024/01/23 06:18:11;;;;;;;10.97;2.93;;;;;;;6.80;82.11;101029.84;5019339;28;20741;-81
2024/01/23 06:20:38;;;;;;;13.23;3.47;;;;;;;6.60;82.51;101038.41;5028544;28;20211;-82
2024/01/23 06:23:04;;;;;;;11.23;2.53;;;;;;;6.73;81.38;101045.38;5038147;28;20260;-80
2024/01/23 06:25:32;;;;;;;12.33;2.87;;;;;;;6.78;80.86;101067.88;5038348;28;20208;-80
2024/01/23 06:27:58;;;;;;;10.50;2.40;;;;;;;6.75;80.21;101102.47;5038246;28;20224;-82
2024/01/23 06:30:25;;;;;;;8.67;2.47;;;;;;;6.80;80.10;101093.00;5037159;28;20210;-80
2024/01/23 06:32:51;;;;;;;15.33;2.67;;;;;;;6.70;81.05;101097.25;5037645;28;20218;-80
2024/01/23 06:35:18;;;;;;;14.23;2.80;;;;;;;6.88;80.76;101101.72;5037313;28;20228;-81
2024/01/23 06:37:44;;;;;;;9.07;3.80;;;;;;;6.90;80.28;101118.16;5038339;28;20228;-80
2024/01/23 06:40:12;;;;;;;10.37;3.83;;;;;;;6.69;80.44;101130.97;5036902;28;20242;-81
2024/01/23 06:42:39;;;;;;;16.00;3.13;;;;;;;6.73;80.17;101138.78;5037174;28;20203;-80
2024/01/23 06:45:07;;;;;;;13.43;3.63;;;;;;;6.91;80.22;101137.19;5037405;28;20651;-81
2024/01/23 06:47:33;;;;;;;14.20;3.03;;;;;;;6.88;81.15;101145.84;5037567;28;20259;-80
2024/01/23 06:49:59;;;;;;;12.30;2.83;;;;;;;6.93;81.21;101143.25;5037621;28;20276;-80
2024/01/23 06:52:26;;;;;;;9.53;2.97;;;;;;;6.74;81.70;101142.25;5037045;28;20212;-80
2024/01/23 06:54:52;;;;;;;11.70;3.73;;;;;;;6.94;80.94;101145.00;5037361;28;20208;-82
2024/01/23 06:57:18;;;;;;;11.53;3.37;;;;;;;6.89;81.27;101146.69;5037483;28;20213;-81
2024/01/23 06:59:46;;;;;;;10.23;3.27;;;;;;;6.78;81.23;101146.63;5016618;28;20206;-80
2024/01/23 07:02:12;;;;;;;13.60;2.90;;;;;;;6.74;81.16;101143.13;5029286;28;20205;-81
2024/01/23 07:04:40;;;;;;;14.47;4.03;;;;;;;6.88;81.65;101145.84;5037199;28;20208;-81
2024/01/23 07:07:06;;;;;;;12.70;3.40;;;;;;;6.81;81.37;101127.59;5037021;28;20287;-81
2024/01/23 07:09:33;;;;;;;12.93;3.37;;;;;;;6.72;82.36;101136.19;5035761;28;20252;-80
2024/01/23 07:11:59;;;;;;;16.73;3.83;;;;;;;6.79;81.78;101118.94;5034782;28;20719;-81
2024/01/23 07:14:25;;;;;;;15.33;3.97;;;;;;;6.78;82.05;101127.56;5035812;28;20253;-81
2024/01/23 07:16:53;;;;;;;13.87;3.13;;;;;;;6.79;81.54;101125.00;5036519;28;20208;-81
2024/01/23 07:19:19;;;;;;;12.63;3.67;;;;;;;6.81;82.26;101133.66;5028176;28;20285;-79
2024/01/23 07:21:46;;;;;;;13.60;3.70;;;;;;;6.91;81.67;101140.66;5028239;28;20248;-81
2024/01/23 07:24:12;;;;;;;13.43;3.13;;;;;;;6.70;81.60;101162.13;5036774;28;20200;-81
2024/01/23 07:26:38;;;;;;;12.53;3.23;;;;;;;6.90;81.64;101177.00;5036407;28;20280;-80
2024/01/23 07:29:05;;;;;;;11.53;3.93;;;;;;;7.01;81.24;101195.22;5042619;28;20224;-80
2024/01/23 07:31:31;;;;;;;17.00;3.97;;;;;;;6.99;80.60;101212.53;5030721;28;20627;-78
2024/01/23 07:33:59;;;;;;;9.67;3.67;;;;;;;6.88;80.71;101223.69;5029950;28;20228;-81
2024/01/23 07:36:26;;;;;;;15.00;3.47;;;;;;;6.87;80.47;101237.50;5029175;28;20214;-80
2024/01/23 07:38:52;;;;;;;12.63;3.37;;;;;;;6.77;80.85;101240.88;5028044;28;20221;-80
2024/01/23 07:41:19;;;;;;;10.63;2.57;;;;;;;6.68;80.67;101238.16;5027674;28;20209;-81
2024/01/23 07:43:45;;;;;;;9.33;2.77;;;;;;;6.89;80.58;101248.75;5027258;28;20196;-81
2024/01/23 07:46:12;;;;;;;10.17;2.97;;;;;;;6.96;82.90;101226.34;5028548;28;20230;-80
2024/01/23 07:48:38;;;;;;;13.20;3.63;;;;;;;6.60;84.97;101196.63;5027633;28;20234;-82
2024/01/23 07:51:06;;;;;;;13.90;3.97;;;;;;;6.44;85.31;101171.38;5030859;28;20271;-81
2024/01/23 07:53:33;;;;;;;11.90;3.77;;;;;;;6.69;85.38;101150.00;5025940;28;20278;-81
2024/01/23 07:56:00;;;;;;;9.37;3.17;;;;;;;6.80;85.44;101136.22;5037676;28;20199;-80
2024/01/23 07:58:26;;;;;;;13.60;4.03;;;;;;;6.89;85.13;101133.72;5037145;28;20282;-82
2024/01/23 08:00:53;;;;;;;12.47;3.60;;;;;;;6.95;83.43;101142.41;5041336;28;20236;-81
2024/01/23 08:03:19;;;;;;;9.80;2.63;;;;;;;6.74;83.50;101168.22;5017689;28;20215;-79
2024/01/23 08:05:46;;;;;;;15.60;3.93;;;;;;;6.72;83.49;101172.53;5016061;28;20236;-79
2024/01/23 08:08:13;;;;;;;18.17;3.57;;;;;;;6.57;83.74;101178.41;5016884;28;20228;-82
2024/01/23 08:10:40;;;;;;;11.20;3.50;;;;;;;6.73;84.42;101182.88;5017648;28;20268;-81
2024/01/23 08:13:06;;;;;;;13.43;5.30;;;;;;;6.86;83.98;101191.66;5024141;28;20232;-81
2024/01/23 08:15:34;;;;;;;10.63;3.03;;;;;;;6.72;84.70;101193.28;5037021;28;20209;-80
2024/01/23 08:18:03;;;;;;;11.37;3.77;;;;;;;6.85;84.79;101171.75;5036678;28;20229;-80
2024/01/23 08:20:30;;;;;;;13.83;3.60;;;;;;;6.90;84.43;101170.06;5029662;28;20205;-79
2024/01/23 08:22:56;;;;;;;11.93;4.20;;;;;;;6.73;84.00;101174.25;5037002;28;20742;-81
2024/01/23 08:25:24;;;;;;;9.70;3.20;;;;;;;6.88;83.29;101176.97;5046250;28;20210;-80
2024/01/23 08:27:50;;;;;;;15.63;4.23;;;;;;;6.92;83.33;101206.41;5028856;28;20223;-80
2024/01/23 08:30:16;;;;;;;11.53;3.63;;;;;;;7.00;82.59;101214.25;5038068;28;20235;-80
2024/01/23 08:32:43;;;;;;;15.20;3.23;;;;;;;6.83;83.08;101240.94;5037619;28;20636;-80
2024/01/23 08:35:10;;;;;;;12.60;3.87;;;;;;;6.80;82.58;101248.69;5037847;28;20250;-82
2024/01/23 08:37:37;;;;;;;11.93;4.63;;;;;;;6.94;83.01;101254.00;5037602;28;20235;-81
2024/01/23 08:40:04;;;;;;;19.70;3.63;;;;;;;6.88;82.89;101259.16;5037730;28;20221;-81
2024/01/23 08:42:34;;;;;;;14.80;4.27;;;;;;;6.96;83.33;101263.53;5036681;28;20212;-80
2024/01/23 08:45:00;;;;;;;9.57;3.10;;;;;;;6.76;83.61;101281.53;5037109;28;20334;-81
2024/01/23 08:47:26;;;;;;;21.03;4.67;;;;;;;6.96;83.97;101273.06;5037026;28;20205;-81
2024/01/23 08:49:53;;;;;;;13.53;3.67;;;;;;;6.90;84.30;101286.84;5037249;28;20266;-80
2024/01/23 08:52:19;;;;;;;11.27;3.40;;;;;;;7.02;83.41;101287.84;5037426;28;20330;-78
2024/01/23 08:54:45;;;;;;;9.07;3.03;;;;;;;6.73;85.43;101291.84;5037483;28;20231;-80
2024/01/23 08:57:12;;;;;;;13.37;3.30;;;;;;;6.78;86.07;101265.09;5036129;28;20235;-81
2024/01/23 08:59:40;;;;;;;17.87;3.23;;;;;;;6.59;88.06;101238.97;5037583;28;20230;-81
2024/01/23 09:02:07;;;;;;;16.10;4.07;;;;;;;6.60;88.79;101199.22;5030189;28;20214;-79
2024/01/23 09:04:33;;;;;;;13.50;3.47;;;;;;;6.65;90.39;101175.91;5016894;28;20222;-81
2024/01/23 09:07:00;;;;;;;16.30;3.73;;;;;;;6.82;89.68;101168.25;5018269;28;20212;-81
2024/01/23 09:09:26;;;;;;;10.33;3.40;;;;;;;6.66;89.56;101178.53;5017568;28;20226;-81
2024/01/23 09:11:52;;;;;;;16.77;4.27;;;;;;;6.65;89.84;101168.97;5029860;28;20209;-81
2024/01/23 09:14:19;;;;;;;9.80;3.67;;;;;;;6.74;89.28;101182.03;5043168;28;20298;-82
2024/01/23 09:16:47;;;;;;;15.70;4.90;;;;;;;6.71;88.88;101182.00;5020359;28;20238;-80
2024/01/23 09:19:14;;;;;;;11.50;3.93;;;;;;;6.90;88.87;101203.81;5028182;28;20236;-79
2024/01/23 09:21:40;;;;;;;15.33;4.17;;;;;;;6.77;87.86;101212.31;5038500;28;20235;-80
2024/01/23 09:24:07;;;;;;;11.57;3.60;;;;;;;6.67;88.45;101219.16;5039378;28;20196;-80
2024/01/23 09:26:33;;;;;;;17.77;3.77;;;;;;;6.77;87.90;101225.31;5039394;28;20266;-80
2024/01/23 09:28:59;;;;;;;12.80;4.20;;;;;;;6.92;88.31;101232.38;5038765;28;20288;-78
2024/01/23 09:31:26;;;;;;;18.33;4.63;;;;;;;6.84;88.38;101240.09;5039841;28;20209;-80
2024/01/23 09:33:53;;;;;;;19.97;3.80;;;;;;;6.93;88.32;101229.75;5039602;28;20231;-79
2024/01/23 09:36:20;;;;;;;16.87;3.67;;;;;;;6.76;89.43;101228.75;5038637;28;20254;-81
2024/01/23 09:38:46;;;;;;;10.87;3.87;;;;;;;6.95;87.58;101246.22;5039766;28;20223;-80
2024/01/23 09:41:13;;;;;;;14.27;3.97;;;;;;;7.05;87.92;101256.69;5039576;28;20256;-81
2024/01/23 09:43:42;;;;;;;17.37;4.07;;;;;;;7.09;86.95;101263.66;5039777;28;20201;-79
2024/01/23 09:46:11;;;;;;;14.70;3.67;;;;;;;6.92;85.76;101297.25;5039683;28;20635;-81
2024/01/23 09:48:37;;;;;;;15.63;4.63;;;;;;;6.86;86.58;101298.06;5037561;28;20232;-79
2024/01/23 09:51:11;;;;;;;9.07;3.37;;;;;;;6.90;86.96;101299.81;5023607;28;20261;-80
2024/01/23 09:53:41;;;;;;;20.47;5.17;;;;;;;6.86;86.55;101303.25;5039004;28;20703;-79
2024/01/23 09:56:08;;;;;;;12.13;3.53;;;;;;;6.93;87.50;101292.06;5038940;28;20208;-79
2024/01/23 09:58:36;;;;;;;14.90;4.07;;;;;;;6.92;86.27;101287.72;5039150;28;20279;-81
2024/01/23 10:01:02;;;;;;;11.20;3.43;;;;;;;6.86;87.44;101287.69;5037882;28;20208;-83
2024/01/23 10:03:32;;;;;;;11.60;3.07;;;;;;;6.85;87.18;101292.84;5038469;28;20728;-81
2024/01/23 10:05:58;;;;;;;15.43;4.97;;;;;;;6.96;87.31;101279.13;5037738;28;21000;-80
2024/01/23 10:08:26;;;;;;;16.77;4.03;;;;;;;6.77;87.12;101287.56;5038675;28;20716;-82
2024/01/23 10:10:57;;;;;;;20.50;4.30;;;;;;;7.16;86.70;101281.03;5019323;28;20208;-82
2024/01/23 10:13:24;;;;;;;19.07;4.43;;;;;;;6.88;85.81;101311.06;5033740;28;20570;-81
2024/01/23 10:15:53;;;;;;;19.30;4.47;;;;;;;7.14;86.25;101309.56;5038149;28;20212;-81
2024/01/23 10:18:21;;;;;;;15.53;3.60;;;;;;;7.19;85.63;101322.59;5032128;28;20232;-80
2024/01/23 10:20:47;;;;;;;10.90;4.07;;;;;;;7.18;85.59;101332.97;5028484;28;20240;-80
2024/01/23 10:23:14;;;;;;;13.30;3.67;;;;;;;7.20;84.85;101352.91;5038787;28;20202;-80
2024/01/23 10:25:42;;;;;;;14.67;3.53;;;;;;;7.07;85.13;101367.47;5038174;28;20249;-79
2024/01/23 10:28:09;;;;;;;19.63;4.73;;;;;;;7.31;84.84;101364.28;5032256;28;20772;-80
2024/01/23 10:30:36;;;;;;;17.23;3.90;;;;;;;7.40;84.57;101386.84;5038445;28;20222;-82
2024/01/23 10:33:04;;;;;;;21.33;3.70;;;;;;;7.43;83.43;101397.25;5035544;28;20206;-79
2024/01/23 10:35:33;;;;;;;17.50;4.47;;;;;;;7.21;83.51;101418.69;5018753;28;20711;-82
2024/01/23 10:38:00;;;;;;;14.77;3.83;;;;;;;7.30;84.00;101413.59;5030327;28;20229;-81
2024/01/23 10:40:27;;;;;;;15.40;3.77;;;;;;;7.33;83.00;101421.41;5039176;28;20244;-81
2024/01/23 10:42:56;;;;;;;17.90;4.50;;;;;;;7.44;82.16;101447.50;5039330;28;20242;-81
2024/01/23 10:45:24;;;;;;;13.27;3.53;;;;;;;7.14;82.30;101454.09;5037712;28;20679;-81
2024/01/23 10:47:51;;;;;;;16.80;4.20;;;;;;;7.45;82.39;101452.72;5039011;28;20242;-81
2024/01/23 10:50:20;;;;;;;16.30;4.30;;;;;;;7.42;81.44;101467.41;5039471;28;20301;-81
2024/01/23 10:52:47;;;;;;;22.70;4.37;;;;;;;7.40;81.90;101488.16;5038844;28;20285;-80
2024/01/23 10:55:14;;;;;;;16.70;3.97;;;;;;;7.65;80.92;101488.41;5038804;28;20230;-81
2024/01/23 10:57:46;;;;;;;18.80;3.73;;;;;;;7.62;81.56;101512.63;5038593;28;20230;-79
2024/01/23 11:00:16;;;;;;;13.23;4.30;;;;;;;7.50;81.72;101510.78;5033006;28;20210;-81
2024/01/23 11:02:48;;;;;;;14.73;4.57;;;;;;;7.62;80.69;101507.44;5040450;28;20670;-81
2024/01/23 11:05:15;;;;;;;15.57;4.30;;;;;;;7.74;81.32;101517.09;5041185;28;20206;-80
2024/01/23 11:07:57;;;;;;;14.27;3.33;;;;;;;7.61;81.09;101520.41;5038392;28;20226;-81
2024/01/23 11:10:29;;;;;;;20.77;3.90;;;;;;;8.03;80.36;101511.31;5040783;28;20202;-81
2024/01/23 11:13:07;;;;;;;13.90;3.87;;;;;;;7.70;79.97;101530.91;5037836;28;20672;-81
2024/01/23 11:15:35;;;;;;;17.10;5.20;;;;;;;7.82;80.49;101533.63;5038608;28;20222;-80
2024/01/23 11:18:26;;;;;;;13.27;5.00;;;;;;;7.83;80.80;101543.19;5036481;28;20272;-81
2024/01/23 11:21:14;;;;;;;12.57;3.93;;;;;;;7.82;81.07;101536.22;5040932;28;20209;-82
2024/01/23 11:23:42;;;;;;;14.43;5.13;;;;;;;7.62;80.68;101551.59;5037866;28;20210;-83
2024/01/23 11:26:15;;;;;;;11.90;3.60;;;;;;;8.01;80.08;101545.09;5037644;28;20204;-81
2024/01/23 11:28:43;;;;;;;15.83;4.07;;;;;;;8.07;79.83;101549.47;5036332;28;20236;-79